sensor_id;sensor_type;location;lat;lon;timestamp;temperature;humidity
22456;DHT22;11395;53.204;6.502;2022-09-20T00:05:35;22.80;70.50
22456;DHT22;11395;53.204;6.502;2022-09-20T00:08:03;22.70;72.10
22456;DHT22;11395;53.204;6.502;2022-09-20T00:10:32;22.60;71.40
22456;DHT22;11395;53.204;6.502;2022-09-20T00:13:01;22.60;71.60
22456;DHT22;11395;53.204;6.502;2022-09-20T00:15:28;22.60;71.60
22456;DHT22;11395;53.204;6.502;2022-09-20T00:17:55;22.60;71.50
22456;DHT22;11395;53.204;6.502;2022-09-20T00:20:23;22.60;71.50
22456;DHT22;11395;53.204;6.502;2022-09-20T00:22:49;22.60;71.50
22456;DHT22;11395;53.204;6.502;2022-09-20T00:25:17;22.60;71.40
22456;DHT22;11395;53.204;6.502;2022-09-20T00:27:43;22.60;71.40
22456;DHT22;11395;53.204;6.502;2022-09-20T00:30:12;22.60;71.40
22456;DHT22;11395;53.204;6.502;2022-09-20T00:32:39;22.60;71.40
22456;DHT22;11395;53.204;6.502;2022-09-20T00:35:06;22.60;71.50
22456;DHT22;11395;53.204;6.502;2022-09-20T00:37:37;22.60;71.30
22456;DHT22;11395;53.204;6.502;2022-09-20T00:40:06;22.50;71.40
22456;DHT22;11395;53.204;6.502;2022-09-20T00:42:33;22.60;71.40
22456;DHT22;11395;53.204;6.502;2022-09-20T00:47:50;22.50;71.40
22456;DHT22;11395;53.204;6.502;2022-09-20T00:50:21;22.50;71.50
22456;DHT22;11395;53.204;6.502;2022-09-20T00:52:53;22.50;71.50
22456;DHT22;11395;53.204;6.502;2022-09-20T00:55:20;22.50;71.50
22456;DHT22;11395;53.204;6.502;2022-09-20T00:57:47;22.50;71.50
22456;DHT22;11395;53.204;6.502;2022-09-20T01:05:31;22.40;70.80
22456;DHT22;11395;53.204;6.502;2022-09-20T01:07:58;22.30;71.80
22456;DHT22;11395;53.204;6.502;2022-09-20T01:10:25;22.30;72.00
22456;DHT22;11395;53.204;6.502;2022-09-20T01:12:53;22.20;72.00
22456;DHT22;11395;53.204;6.502;2022-09-20T01:15:20;22.20;72.00
22456;DHT22;11395;53.204;6.502;2022-09-20T01:17:51;22.20;71.90
22456;DHT22;11395;53.204;6.502;2022-09-20T01:20:30;22.20;72.00
22456;DHT22;11395;53.204;6.502;2022-09-20T01:28:39;22.20;71.70
22456;DHT22;11395;53.204;6.502;2022-09-20T01:31:28;22.20;71.80
22456;DHT22;11395;53.204;6.502;2022-09-20T01:34:03;22.20;71.80
22456;DHT22;11395;53.204;6.502;2022-09-20T01:36:56;22.20;71.80
22456;DHT22;11395;53.204;6.502;2022-09-20T01:42:37;22.20;71.80
22456;DHT22;11395;53.204;6.502;2022-09-20T01:45:19;22.10;71.80
22456;DHT22;11395;53.204;6.502;2022-09-20T01:48:16;22.10;71.80
22456;DHT22;11395;53.204;6.502;2022-09-20T01:59:48;22.00;71.90
22456;DHT22;11395;53.204;6.502;2022-09-20T02:03:01;22.00;71.90
22456;DHT22;11395;53.204;6.502;2022-09-20T02:05:26;22.00;72.00
22456;DHT22;11395;53.204;6.502;2022-09-20T02:11:08;21.90;71.90
22456;DHT22;11395;53.204;6.502;2022-09-20T02:24:19;21.90;72.00
22456;DHT22;11395;53.204;6.502;2022-09-20T02:29:59;21.90;71.90
22456;DHT22;11395;53.204;6.502;2022-09-20T02:35:32;21.80;72.00
22456;DHT22;11395;53.204;6.502;2022-09-20T02:38:11;21.80;72.00
22456;DHT22;11395;53.204;6.502;2022-09-20T02:43:43;21.80;72.00
22456;DHT22;11395;53.204;6.502;2022-09-20T02:46:55;21.70;72.00
22456;DHT22;11395;53.204;6.502;2022-09-20T02:51:59;21.70;72.10
22456;DHT22;11395;53.204;6.502;2022-09-20T02:57:35;21.70;72.00
22456;DHT22;11395;53.204;6.502;2022-09-20T03:00:12;21.60;71.90
22456;DHT22;11395;53.204;6.502;2022-09-20T03:03:03;21.60;72.00
22456;DHT22;11395;53.204;6.502;2022-09-20T03:05:45;21.60;72.00
22456;DHT22;11395;53.204;6.502;2022-09-20T03:11:46;21.50;72.00
22456;DHT22;11395;53.204;6.502;2022-09-20T03:14:49;21.50;72.00
22456;DHT22;11395;53.204;6.502;2022-09-20T03:20:02;21.50;72.20
22456;DHT22;11395;53.204;6.502;2022-09-20T03:33:46;21.40;72.10
22456;DHT22;11395;53.204;6.502;2022-09-20T03:53:00;21.30;72.10
22456;DHT22;11395;53.204;6.502;2022-09-20T03:59:02;21.30;72.20
22456;DHT22;11395;53.204;6.502;2022-09-20T04:07:00;21.50;72.20
22456;DHT22;11395;53.204;6.502;2022-09-20T04:20:45;22.10;71.50
22456;DHT22;11395;53.204;6.502;2022-09-20T04:23:38;22.20;71.20
22456;DHT22;11395;53.204;6.502;2022-09-20T04:26:07;22.30;70.90
22456;DHT22;11395;53.204;6.502;2022-09-20T04:28:50;22.40;70.70
22456;DHT22;11395;53.204;6.502;2022-09-20T04:34:34;22.60;70.30
22456;DHT22;11395;53.204;6.502;2022-09-20T04:37:26;22.70;70.30
22456;DHT22;11395;53.204;6.502;2022-09-20T04:40:05;22.80;70.10
22456;DHT22;11395;53.204;6.502;2022-09-20T05:02:28;23.40;69.10
22456;DHT22;11395;53.204;6.502;2022-09-20T05:08:37;23.60;68.80
22456;DHT22;11395;53.204;6.502;2022-09-20T05:22:27;24.10;68.00
22456;DHT22;11395;53.204;6.502;2022-09-20T05:30:29;24.30;67.40
22456;DHT22;11395;53.204;6.502;2022-09-20T05:33:23;24.30;67.30
22456;DHT22;11395;53.204;6.502;2022-09-20T05:36:16;24.40;67.40
22456;DHT22;11395;53.204;6.502;2022-09-20T05:38:50;24.40;67.20
22456;DHT22;11395;53.204;6.502;2022-09-20T05:47:06;24.40;67.00
22456;DHT22;11395;53.204;6.502;2022-09-20T05:50:06;24.40;66.60
22456;DHT22;11395;53.204;6.502;2022-09-20T05:52:41;24.40;66.90
22456;DHT22;11395;53.204;6.502;2022-09-20T05:55:13;24.40;66.90
22456;DHT22;11395;53.204;6.502;2022-09-20T06:03:54;24.30;66.70
22456;DHT22;11395;53.204;6.502;2022-09-20T06:07:23;24.30;67.00
22456;DHT22;11395;53.204;6.502;2022-09-20T06:15:11;24.20;66.90
22456;DHT22;11395;53.204;6.502;2022-09-20T06:17:47;24.20;66.90
22456;DHT22;11395;53.204;6.502;2022-09-20T06:22:52;24.20;67.00
22456;DHT22;11395;53.204;6.502;2022-09-20T06:28:18;24.20;66.90
22456;DHT22;11395;53.204;6.502;2022-09-20T06:30:50;24.20;66.90
22456;DHT22;11395;53.204;6.502;2022-09-20T06:33:22;24.10;66.90
22456;DHT22;11395;53.204;6.502;2022-09-20T06:38:44;24.10;66.90
22456;DHT22;11395;53.204;6.502;2022-09-20T06:41:35;24.00;66.90
22456;DHT22;11395;53.204;6.502;2022-09-20T06:44:04;24.00;67.00
22456;DHT22;11395;53.204;6.502;2022-09-20T06:46:33;24.00;67.00
22456;DHT22;11395;53.204;6.502;2022-09-20T06:49:01;23.90;67.10
22456;DHT22;11395;53.204;6.502;2022-09-20T06:51:33;23.90;67.20
22456;DHT22;11395;53.204;6.502;2022-09-20T06:54:00;23.90;67.10
22456;DHT22;11395;53.204;6.502;2022-09-20T06:56:30;24.00;67.10
22456;DHT22;11395;53.204;6.502;2022-09-20T06:59:00;24.00;67.30
22456;DHT22;11395;53.204;6.502;2022-09-20T07:01:26;24.10;67.30
22456;DHT22;11395;53.204;6.502;2022-09-20T07:03:52;24.10;67.30
22456;DHT22;11395;53.204;6.502;2022-09-20T07:06:18;24.20;67.30
22456;DHT22;11395;53.204;6.502;2022-09-20T07:08:45;24.20;67.40
22456;DHT22;11395;53.204;6.502;2022-09-20T07:11:14;24.30;67.50
22456;DHT22;11395;53.204;6.502;2022-09-20T07:13:48;24.30;67.40
22456;DHT22;11395;53.204;6.502;2022-09-20T07:16:14;24.40;67.50
22456;DHT22;11395;53.204;6.502;2022-09-20T07:18:41;24.50;67.40
22456;DHT22;11395;53.204;6.502;2022-09-20T07:21:12;24.50;67.20
22456;DHT22;11395;53.204;6.502;2022-09-20T07:23:39;24.60;67.10
22456;DHT22;11395;53.204;6.502;2022-09-20T07:26:06;24.60;67.10
22456;DHT22;11395;53.204;6.502;2022-09-20T07:28:33;24.60;67.10
22456;DHT22;11395;53.204;6.502;2022-09-20T07:31:00;24.70;67.00
22456;DHT22;11395;53.204;6.502;2022-09-20T07:33:26;24.70;66.90
22456;DHT22;11395;53.204;6.502;2022-09-20T07:35:53;24.70;66.90
22456;DHT22;11395;53.204;6.502;2022-09-20T07:38:23;24.80;66.90
22456;DHT22;11395;53.204;6.502;2022-09-20T07:41:00;24.90;66.90
22456;DHT22;11395;53.204;6.502;2022-09-20T07:43:28;24.90;66.80
22456;DHT22;11395;53.204;6.502;2022-09-20T07:45:55;24.90;66.70
22456;DHT22;11395;53.204;6.502;2022-09-20T07:48:24;25.00;66.90
22456;DHT22;11395;53.204;6.502;2022-09-20T07:50:55;25.00;66.80
22456;DHT22;11395;53.204;6.502;2022-09-20T07:53:22;25.10;66.70
22456;DHT22;11395;53.204;6.502;2022-09-20T07:58:32;25.10;66.50
22456;DHT22;11395;53.204;6.502;2022-09-20T08:01:01;25.10;66.40
22456;DHT22;11395;53.204;6.502;2022-09-20T08:03:31;25.10;66.50
22456;DHT22;11395;53.204;6.502;2022-09-20T08:05:59;25.10;66.50
22456;DHT22;11395;53.204;6.502;2022-09-20T08:08:27;25.10;66.40
22456;DHT22;11395;53.204;6.502;2022-09-20T08:11:08;25.10;66.40
22456;DHT22;11395;53.204;6.502;2022-09-20T08:13:41;25.10;66.60
22456;DHT22;11395;53.204;6.502;2022-09-20T08:16:09;25.10;66.50
22456;DHT22;11395;53.204;6.502;2022-09-20T08:18:36;25.10;66.40
22456;DHT22;11395;53.204;6.502;2022-09-20T08:21:07;25.10;66.30
22456;DHT22;11395;53.204;6.502;2022-09-20T08:23:38;25.20;66.80
22456;DHT22;11395;53.204;6.502;2022-09-20T08:26:08;25.20;66.60
22456;DHT22;11395;53.204;6.502;2022-09-20T08:28:34;25.30;67.20
22456;DHT22;11395;53.204;6.502;2022-09-20T08:33:28;25.20;66.30
22456;DHT22;11395;53.204;6.502;2022-09-20T08:35:54;25.30;66.20
22456;DHT22;11395;53.204;6.502;2022-09-20T08:38:20;25.40;66.10
22456;DHT22;11395;53.204;6.502;2022-09-20T08:40:55;25.40;66.10
22456;DHT22;11395;53.204;6.502;2022-09-20T08:43:26;25.50;65.60
22456;DHT22;11395;53.204;6.502;2022-09-20T08:45:55;25.50;65.70
22456;DHT22;11395;53.204;6.502;2022-09-20T08:48:27;25.50;65.20
22456;DHT22;11395;53.204;6.502;2022-09-20T08:50:54;25.60;65.40
22456;DHT22;11395;53.204;6.502;2022-09-20T08:53:21;25.60;65.10
22456;DHT22;11395;53.204;6.502;2022-09-20T08:55:47;25.50;64.90
22456;DHT22;11395;53.204;6.502;2022-09-20T08:58:13;25.50;65.20
22456;DHT22;11395;53.204;6.502;2022-09-20T09:00:42;25.50;65.30
22456;DHT22;11395;53.204;6.502;2022-09-20T09:03:13;25.40;65.30
22456;DHT22;11395;53.204;6.502;2022-09-20T09:08:24;25.40;65.10
22456;DHT22;11395;53.204;6.502;2022-09-20T09:10:54;25.40;65.30
22456;DHT22;11395;53.204;6.502;2022-09-20T09:13:31;25.40;65.20
22456;DHT22;11395;53.204;6.502;2022-09-20T09:16:04;25.40;65.00
22456;DHT22;11395;53.204;6.502;2022-09-20T09:18:34;25.40;65.10
22456;DHT22;11395;53.204;6.502;2022-09-20T09:21:02;25.40;65.00
22456;DHT22;11395;53.204;6.502;2022-09-20T09:23:31;25.40;65.20
22456;DHT22;11395;53.204;6.502;2022-09-20T09:26:04;25.40;64.90
22456;DHT22;11395;53.204;6.502;2022-09-20T09:28:30;25.40;65.10
22456;DHT22;11395;53.204;6.502;2022-09-20T09:31:13;25.40;65.00
22456;DHT22;11395;53.204;6.502;2022-09-20T09:33:45;25.40;65.00
22456;DHT22;11395;53.204;6.502;2022-09-20T09:36:19;25.50;64.80
22456;DHT22;11395;53.204;6.502;2022-09-20T09:38:47;25.50;64.80
22456;DHT22;11395;53.204;6.502;2022-09-20T09:43:43;25.30;65.40
22456;DHT22;11395;53.204;6.502;2022-09-20T09:46:22;25.30;65.10
22456;DHT22;11395;53.204;6.502;2022-09-20T09:54:35;25.30;65.50
22456;DHT22;11395;53.204;6.502;2022-09-20T10:00:19;25.40;65.40
22456;DHT22;11395;53.204;6.502;2022-09-20T10:06:15;25.50;65.00
22456;DHT22;11395;53.204;6.502;2022-09-20T10:31:15;25.40;65.10
22456;DHT22;11395;53.204;6.502;2022-09-20T10:36:52;25.30;65.30
22456;DHT22;11395;53.204;6.502;2022-09-20T10:39:29;25.30;65.40
22456;DHT22;11395;53.204;6.502;2022-09-20T10:45:19;25.30;65.30
22456;DHT22;11395;53.204;6.502;2022-09-20T10:50:40;25.30;65.40
22456;DHT22;11395;53.204;6.502;2022-09-20T10:56:32;25.30;65.40
22456;DHT22;11395;53.204;6.502;2022-09-20T11:02:08;25.20;65.60
22456;DHT22;11395;53.204;6.502;2022-09-20T11:10:35;25.10;65.70
22456;DHT22;11395;53.204;6.502;2022-09-20T11:15:57;25.10;65.90
22456;DHT22;11395;53.204;6.502;2022-09-20T11:21:19;25.00;65.80
22456;DHT22;11395;53.204;6.502;2022-09-20T11:26:40;25.00;66.10
22456;DHT22;11395;53.204;6.502;2022-09-20T11:31:50;24.90;66.10
22456;DHT22;11395;53.204;6.502;2022-09-20T11:34:24;24.90;66.20
22456;DHT22;11395;53.204;6.502;2022-09-20T11:36:56;25.00;66.30
22456;DHT22;11395;53.204;6.502;2022-09-20T11:42:04;25.00;66.40
22456;DHT22;11395;53.204;6.502;2022-09-20T11:44:32;25.00;66.40
22456;DHT22;11395;53.204;6.502;2022-09-20T11:47:17;25.00;66.40
22456;DHT22;11395;53.204;6.502;2022-09-20T11:52:57;25.00;66.50
22456;DHT22;11395;53.204;6.502;2022-09-20T11:58:15;25.00;66.50
22456;DHT22;11395;53.204;6.502;2022-09-20T12:00:46;25.00;66.50
22456;DHT22;11395;53.204;6.502;2022-09-20T12:06:06;25.00;66.60
22456;DHT22;11395;53.204;6.502;2022-09-20T12:08:36;25.00;66.60
22456;DHT22;11395;53.204;6.502;2022-09-20T12:11:07;25.10;66.70
22456;DHT22;11395;53.204;6.502;2022-09-20T12:13:38;25.00;66.60
22456;DHT22;11395;53.204;6.502;2022-09-20T12:16:13;25.10;66.60
22456;DHT22;11395;53.204;6.502;2022-09-20T12:19:01;25.10;66.70
22456;DHT22;11395;53.204;6.502;2022-09-20T12:21:27;25.00;66.60
22456;DHT22;11395;53.204;6.502;2022-09-20T12:29:00;24.90;66.60
22456;DHT22;11395;53.204;6.502;2022-09-20T12:33:59;24.90;66.70
22456;DHT22;11395;53.204;6.502;2022-09-20T12:36:32;24.90;66.90
22456;DHT22;11395;53.204;6.502;2022-09-20T12:39:14;25.00;67.00
22456;DHT22;11395;53.204;6.502;2022-09-20T12:49:34;25.00;66.70
22456;DHT22;11395;53.204;6.502;2022-09-20T12:55:42;25.10;66.00
22456;DHT22;11395;53.204;6.502;2022-09-20T13:05:42;25.00;66.00
22456;DHT22;11395;53.204;6.502;2022-09-20T13:08:21;25.10;66.00
22456;DHT22;11395;53.204;6.502;2022-09-20T13:19:18;25.30;65.90
22456;DHT22;11395;53.204;6.502;2022-09-20T13:24:19;25.10;65.30
22456;DHT22;11395;53.204;6.502;2022-09-20T13:26:47;25.10;66.20
22456;DHT22;11395;53.204;6.502;2022-09-20T13:29:24;25.10;65.60
22456;DHT22;11395;53.204;6.502;2022-09-20T13:31:52;25.10;65.90
22456;DHT22;11395;53.204;6.502;2022-09-20T13:34:23;25.10;65.80
22456;DHT22;11395;53.204;6.502;2022-09-20T13:36:54;25.20;65.90
22456;DHT22;11395;53.204;6.502;2022-09-20T13:39:30;25.20;65.90
22456;DHT22;11395;53.204;6.502;2022-09-20T13:42:06;25.20;65.80
22456;DHT22;11395;53.204;6.502;2022-09-20T13:44:33;25.20;65.80
22456;DHT22;11395;53.204;6.502;2022-09-20T13:47:00;25.30;65.80
22456;DHT22;11395;53.204;6.502;2022-09-20T13:49:30;25.30;65.60
22456;DHT22;11395;53.204;6.502;2022-09-20T13:51:57;25.30;65.50
22456;DHT22;11395;53.204;6.502;2022-09-20T13:54:28;25.30;66.40
22456;DHT22;11395;53.204;6.502;2022-09-20T13:57:04;25.20;65.50
22456;DHT22;11395;53.204;6.502;2022-09-20T13:59:41;25.20;65.40
22456;DHT22;11395;53.204;6.502;2022-09-20T14:02:26;25.20;65.50
22456;DHT22;11395;53.204;6.502;2022-09-20T14:04:55;25.20;65.60
22456;DHT22;11395;53.204;6.502;2022-09-20T14:07:22;25.10;65.40
22456;DHT22;11395;53.204;6.502;2022-09-20T14:09:51;25.10;65.40
22456;DHT22;11395;53.204;6.502;2022-09-20T14:12:18;25.10;65.50
22456;DHT22;11395;53.204;6.502;2022-09-20T14:14:45;25.10;65.50
22456;DHT22;11395;53.204;6.502;2022-09-20T14:17:15;25.00;65.40
22456;DHT22;11395;53.204;6.502;2022-09-20T14:19:47;25.00;65.40
22456;DHT22;11395;53.204;6.502;2022-09-20T14:22:25;25.00;65.40
22456;DHT22;11395;53.204;6.502;2022-09-20T14:25:01;24.90;65.40
22456;DHT22;11395;53.204;6.502;2022-09-20T14:27:29;24.90;65.40
22456;DHT22;11395;53.204;6.502;2022-09-20T14:29:56;24.90;65.40
22456;DHT22;11395;53.204;6.502;2022-09-20T14:32:27;24.90;66.20
22456;DHT22;11395;53.204;6.502;2022-09-20T14:37:31;24.80;65.30
22456;DHT22;11395;53.204;6.502;2022-09-20T14:40:00;24.80;65.40
22456;DHT22;11395;53.204;6.502;2022-09-20T14:42:34;24.80;65.50
22456;DHT22;11395;53.204;6.502;2022-09-20T14:45:03;24.80;65.60
22456;DHT22;11395;53.204;6.502;2022-09-20T14:48:01;24.80;65.50
22456;DHT22;11395;53.204;6.502;2022-09-20T14:50:42;24.80;65.60
22456;DHT22;11395;53.204;6.502;2022-09-20T14:56:14;24.80;65.60
22456;DHT22;11395;53.204;6.502;2022-09-20T14:59:05;24.80;65.60
22456;DHT22;11395;53.204;6.502;2022-09-20T15:01:33;24.80;65.60
22456;DHT22;11395;53.204;6.502;2022-09-20T15:04:20;24.80;65.60
22456;DHT22;11395;53.204;6.502;2022-09-20T15:06:47;24.80;65.50
22456;DHT22;11395;53.204;6.502;2022-09-20T15:09:14;24.70;65.30
22456;DHT22;11395;53.204;6.502;2022-09-20T15:11:41;24.70;65.30
22456;DHT22;11395;53.204;6.502;2022-09-20T15:14:08;24.70;66.10
22456;DHT22;11395;53.204;6.502;2022-09-20T15:16:34;24.70;65.40
22456;DHT22;11395;53.204;6.502;2022-09-20T15:19:00;24.70;65.40
22456;DHT22;11395;53.204;6.502;2022-09-20T15:21:27;24.70;65.30
22456;DHT22;11395;53.204;6.502;2022-09-20T15:23:53;24.70;65.30
22456;DHT22;11395;53.204;6.502;2022-09-20T15:26:20;24.60;65.30
22456;DHT22;11395;53.204;6.502;2022-09-20T15:28:46;24.60;65.30
22456;DHT22;11395;53.204;6.502;2022-09-20T15:31:13;24.60;65.30
22456;DHT22;11395;53.204;6.502;2022-09-20T15:33:40;24.60;65.50
22456;DHT22;11395;53.204;6.502;2022-09-20T15:36:06;24.60;65.50
22456;DHT22;11395;53.204;6.502;2022-09-20T15:38:33;24.60;66.20
22456;DHT22;11395;53.204;6.502;2022-09-20T15:41:00;24.60;65.40
22456;DHT22;11395;53.204;6.502;2022-09-20T15:43:31;24.50;65.20
22456;DHT22;11395;53.204;6.502;2022-09-20T15:45:59;24.50;65.40
22456;DHT22;11395;53.204;6.502;2022-09-20T15:48:27;24.50;65.30
22456;DHT22;11395;53.204;6.502;2022-09-20T15:51:01;24.50;65.40
22456;DHT22;11395;53.204;6.502;2022-09-20T15:56:00;24.40;65.30
22456;DHT22;11395;53.204;6.502;2022-09-20T15:58:32;24.40;65.40
22456;DHT22;11395;53.204;6.502;2022-09-20T16:01:06;24.40;65.30
22456;DHT22;11395;53.204;6.502;2022-09-20T16:03:34;24.40;65.30
22456;DHT22;11395;53.204;6.502;2022-09-20T16:06:03;24.40;65.40
22456;DHT22;11395;53.204;6.502;2022-09-20T16:08:31;24.40;65.40
22456;DHT22;11395;53.204;6.502;2022-09-20T16:10:58;24.40;65.60
22456;DHT22;11395;53.204;6.502;2022-09-20T16:13:24;24.30;65.60
22456;DHT22;11395;53.204;6.502;2022-09-20T16:15:58;24.30;65.60
22456;DHT22;11395;53.204;6.502;2022-09-20T16:18:25;24.30;65.70
22456;DHT22;11395;53.204;6.502;2022-09-20T16:21:12;24.30;65.90
22456;DHT22;11395;53.204;6.502;2022-09-20T16:23:40;24.20;65.80
22456;DHT22;11395;53.204;6.502;2022-09-20T16:26:07;24.20;65.90
22456;DHT22;11395;53.204;6.502;2022-09-20T16:28:41;24.20;66.00
22456;DHT22;11395;53.204;6.502;2022-09-20T16:34:02;24.10;66.30
22456;DHT22;11395;53.204;6.502;2022-09-20T16:36:32;24.10;66.20
22456;DHT22;11395;53.204;6.502;2022-09-20T16:38:58;24.10;66.40
22456;DHT22;11395;53.204;6.502;2022-09-20T16:41:27;24.10;66.40
22456;DHT22;11395;53.204;6.502;2022-09-20T16:43:54;24.10;66.50
22456;DHT22;11395;53.204;6.502;2022-09-20T16:46:21;24.10;67.00
22456;DHT22;11395;53.204;6.502;2022-09-20T16:48:49;24.00;66.90
22456;DHT22;11395;53.204;6.502;2022-09-20T16:51:23;24.00;67.20
22456;DHT22;11395;53.204;6.502;2022-09-20T16:53:51;24.00;67.00
22456;DHT22;11395;53.204;6.502;2022-09-20T16:56:23;24.00;67.00
22456;DHT22;11395;53.204;6.502;2022-09-20T16:58:50;24.00;66.90
22456;DHT22;11395;53.204;6.502;2022-09-20T17:01:17;24.00;66.90
22456;DHT22;11395;53.204;6.502;2022-09-20T17:03:44;23.90;66.90
22456;DHT22;11395;53.204;6.502;2022-09-20T17:06:13;23.90;66.90
22456;DHT22;11395;53.204;6.502;2022-09-20T17:08:41;24.00;67.10
22456;DHT22;11395;53.204;6.502;2022-09-20T17:11:12;23.90;67.10
22456;DHT22;11395;53.204;6.502;2022-09-20T17:13:41;24.00;67.30
22456;DHT22;11395;53.204;6.502;2022-09-20T17:16:11;23.90;67.20
22456;DHT22;11395;53.204;6.502;2022-09-20T17:18:39;23.90;67.30
22456;DHT22;11395;53.204;6.502;2022-09-20T17:21:15;23.90;67.40
22456;DHT22;11395;53.204;6.502;2022-09-20T17:23:44;23.80;67.40
22456;DHT22;11395;53.204;6.502;2022-09-20T17:26:18;23.80;67.30
22456;DHT22;11395;53.204;6.502;2022-09-20T17:28:47;23.80;67.40
22456;DHT22;11395;53.204;6.502;2022-09-20T17:31:16;23.80;67.30
22456;DHT22;11395;53.204;6.502;2022-09-20T17:33:43;23.80;67.40
22456;DHT22;11395;53.204;6.502;2022-09-20T17:36:16;23.90;67.60
22456;DHT22;11395;53.204;6.502;2022-09-20T17:38:53;23.90;67.60
22456;DHT22;11395;53.204;6.502;2022-09-20T17:41:20;23.90;67.50
22456;DHT22;11395;53.204;6.502;2022-09-20T17:43:49;24.00;67.40
22456;DHT22;11395;53.204;6.502;2022-09-20T17:46:28;24.10;67.40
22456;DHT22;11395;53.204;6.502;2022-09-20T17:48:58;24.10;67.30
22456;DHT22;11395;53.204;6.502;2022-09-20T17:51:28;24.10;67.30
22456;DHT22;11395;53.204;6.502;2022-09-20T17:53:55;24.10;67.20
22456;DHT22;11395;53.204;6.502;2022-09-20T17:56:23;24.20;67.20
22456;DHT22;11395;53.204;6.502;2022-09-20T17:58:58;24.20;67.10
22456;DHT22;11395;53.204;6.502;2022-09-20T18:01:25;24.20;67.20
22456;DHT22;11395;53.204;6.502;2022-09-20T18:03:53;24.20;67.20
22456;DHT22;11395;53.204;6.502;2022-09-20T18:06:30;24.20;67.30
22456;DHT22;11395;53.204;6.502;2022-09-20T18:09:02;24.20;67.30
22456;DHT22;11395;53.204;6.502;2022-09-20T18:11:34;24.20;67.30
22456;DHT22;11395;53.204;6.502;2022-09-20T18:14:02;24.30;67.40
22456;DHT22;11395;53.204;6.502;2022-09-20T18:16:29;24.30;67.40
22456;DHT22;11395;53.204;6.502;2022-09-20T18:18:58;24.30;67.50
22456;DHT22;11395;53.204;6.502;2022-09-20T18:21:27;24.30;67.30
22456;DHT22;11395;53.204;6.502;2022-09-20T18:23:53;24.30;67.10
22456;DHT22;11395;53.204;6.502;2022-09-20T18:26:22;24.20;67.00
22456;DHT22;11395;53.204;6.502;2022-09-20T18:31:35;24.20;67.00
22456;DHT22;11395;53.204;6.502;2022-09-20T18:34:06;24.20;67.20
22456;DHT22;11395;53.204;6.502;2022-09-20T18:36:34;24.20;67.20
22456;DHT22;11395;53.204;6.502;2022-09-20T18:39:01;24.20;67.30
22456;DHT22;11395;53.204;6.502;2022-09-20T18:41:30;24.10;67.20
22456;DHT22;11395;53.204;6.502;2022-09-20T18:43:58;24.10;67.30
22456;DHT22;11395;53.204;6.502;2022-09-20T18:46:27;24.10;67.40
22456;DHT22;11395;53.204;6.502;2022-09-20T18:49:00;24.10;67.40
22456;DHT22;11395;53.204;6.502;2022-09-20T18:51:30;24.10;67.50
22456;DHT22;11395;53.204;6.502;2022-09-20T18:53:56;24.10;67.60
22456;DHT22;11395;53.204;6.502;2022-09-20T18:56:32;24.10;67.60
22456;DHT22;11395;53.204;6.502;2022-09-20T18:59:11;24.00;67.60
22456;DHT22;11395;53.204;6.502;2022-09-20T19:12:31;24.00;67.80
22456;DHT22;11395;53.204;6.502;2022-09-20T19:23:56;23.90;68.00
22456;DHT22;11395;53.204;6.502;2022-09-20T19:28:51;23.80;68.10
22456;DHT22;11395;53.204;6.502;2022-09-20T19:31:26;23.80;68.10
22456;DHT22;11395;53.204;6.502;2022-09-20T19:33:53;23.80;68.20
22456;DHT22;11395;53.204;6.502;2022-09-20T19:36:25;23.80;68.20
22456;DHT22;11395;53.204;6.502;2022-09-20T19:39:16;23.80;68.30
22456;DHT22;11395;53.204;6.502;2022-09-20T19:45:17;23.70;68.40
22456;DHT22;11395;53.204;6.502;2022-09-20T19:50:42;23.70;68.40
22456;DHT22;11395;53.204;6.502;2022-09-20T19:53:18;23.70;68.50
22456;DHT22;11395;53.204;6.502;2022-09-20T19:56:00;23.70;68.50
22456;DHT22;11395;53.204;6.502;2022-09-20T19:58:28;23.70;68.60
22456;DHT22;11395;53.204;6.502;2022-09-20T20:00:54;23.80;68.70
22456;DHT22;11395;53.204;6.502;2022-09-20T20:03:23;23.80;68.60
22456;DHT22;11395;53.204;6.502;2022-09-20T20:09:11;23.90;68.50
22456;DHT22;11395;53.204;6.502;2022-09-20T20:18:13;24.10;68.30
22456;DHT22;11395;53.204;6.502;2022-09-20T20:23:29;24.10;68.10
22456;DHT22;11395;53.204;6.502;2022-09-20T20:26:18;24.20;68.10
22456;DHT22;11395;53.204;6.502;2022-09-20T20:28:44;24.20;68.00
22456;DHT22;11395;53.204;6.502;2022-09-20T20:31:11;24.20;68.00
22456;DHT22;11395;53.204;6.502;2022-09-20T20:33:38;24.20;67.90
22456;DHT22;11395;53.204;6.502;2022-09-20T20:36:04;24.20;67.90
22456;DHT22;11395;53.204;6.502;2022-09-20T20:38:39;24.20;67.80
22456;DHT22;11395;53.204;6.502;2022-09-20T20:41:14;24.20;67.80
22456;DHT22;11395;53.204;6.502;2022-09-20T20:43:41;24.20;67.90
22456;DHT22;11395;53.204;6.502;2022-09-20T20:46:11;24.20;67.80
22456;DHT22;11395;53.204;6.502;2022-09-20T20:48:39;24.30;67.90
22456;DHT22;11395;53.204;6.502;2022-09-20T20:51:16;24.30;67.80
22456;DHT22;11395;53.204;6.502;2022-09-20T20:53:53;24.20;67.70
22456;DHT22;11395;53.204;6.502;2022-09-20T20:56:22;24.20;67.70
22456;DHT22;11395;53.204;6.502;2022-09-20T20:58:51;24.20;67.70
22456;DHT22;11395;53.204;6.502;2022-09-20T21:01:26;24.20;67.70
22456;DHT22;11395;53.204;6.502;2022-09-20T21:03:54;24.20;67.70
22456;DHT22;11395;53.204;6.502;2022-09-20T21:06:25;24.20;67.70
22456;DHT22;11395;53.204;6.502;2022-09-20T21:08:52;24.20;67.80
22456;DHT22;11395;53.204;6.502;2022-09-20T21:11:21;24.20;67.80
22456;DHT22;11395;53.204;6.502;2022-09-20T21:13:54;24.10;67.80
22456;DHT22;11395;53.204;6.502;2022-09-20T21:16:30;24.10;67.90
22456;DHT22;11395;53.204;6.502;2022-09-20T21:18:57;24.10;67.90
22456;DHT22;11395;53.204;6.502;2022-09-20T21:21:25;24.10;68.00
22456;DHT22;11395;53.204;6.502;2022-09-20T21:23:53;24.10;68.00
22456;DHT22;11395;53.204;6.502;2022-09-20T21:26:21;24.10;68.00
22456;DHT22;11395;53.204;6.502;2022-09-20T21:28:55;24.00;67.90
22456;DHT22;11395;53.204;6.502;2022-09-20T21:31:26;24.00;68.00
22456;DHT22;11395;53.204;6.502;2022-09-20T21:33:52;24.00;67.90
22456;DHT22;11395;53.204;6.502;2022-09-20T21:36:21;23.90;67.90
22456;DHT22;11395;53.204;6.502;2022-09-20T21:38:47;23.90;68.00
22456;DHT22;11395;53.204;6.502;2022-09-20T21:41:17;23.90;68.10
22456;DHT22;11395;53.204;6.502;2022-09-20T21:43:45;23.90;68.10
22456;DHT22;11395;53.204;6.502;2022-09-20T21:46:14;23.80;68.10
22456;DHT22;11395;53.204;6.502;2022-09-20T21:48:41;23.80;68.20
22456;DHT22;11395;53.204;6.502;2022-09-20T21:51:08;23.80;68.10
22456;DHT22;11395;53.204;6.502;2022-09-20T21:53:36;23.70;68.10
22456;DHT22;11395;53.204;6.502;2022-09-20T21:56:05;23.70;68.20
22456;DHT22;11395;53.204;6.502;2022-09-20T21:58:32;23.70;68.30
22456;DHT22;11395;53.204;6.502;2022-09-20T22:01:07;23.70;68.30